Time;durP1;ratioP1;P1;durP2;ratioP2;P2;SDS_P1;SDS_P2;PMS_P1;PMS_P2;Temp;Humidity;BMP_temperature;BMP_pressure;BME280_temperature;BME280_humidity;BME280_pressure;Samples;Min_cycle;Max_cycle;Signal;HPM_P1;HPM_P2
2021/07/13 00:00:53;;;;;;;;;;;;;;;;;;2141351;66;1343;-67
2021/07/13 00:03:18;;;;;;;;;;;;;;;;;;2142409;59;2058;-68
2021/07/13 00:05:43;;;;;;;;;;;;;;;;;;2140856;66;1294;-68
2021/07/13 00:08:08;;;;;;;;;;;;;;;;;;2142684;66;1242;-69
2021/07/13 00:10:35;;;;;;;;;;;;;;;;;;2141631;66;1156;-67
2021/07/13 00:13:01;;;;;;;;;;;;;;;;;;2141404;59;1326;-68
2021/07/13 00:15:41;;;;;;;;;;;;;;;;;;2141787;59;1327;-67
2021/07/13 00:18:07;;;;;;;;;;;;;;;;;;2143121;66;1937;-67
2021/07/13 00:20:32;;;;;;;;;;;;;;;;;;2139081;59;1239;-68
2021/07/13 00:22:58;;;;;;;;;;;;;;;;;;2142097;59;1409;-68
2021/07/13 00:25:24;;;;;;;;;;;;;;;;;;2142365;66;1252;-68
2021/07/13 00:27:49;;;;;;;;;;;;;;;;;;2142661;66;1191;-68
2021/07/13 00:30:16;;;;;;;;;;;;;;;;;;2141135;66;1151;-67
2021/07/13 00:32:41;;;;;;;;;;;;;;;;;;2142276;66;1145;-68
2021/07/13 00:35:07;;;;;;;;;;;;;;;;;;2139231;67;1181;-67
2021/07/13 00:37:32;;;;;;;;;;;;;;;;;;2142449;66;1928;-68
2021/07/13 00:39:57;;;;;;;;;;;;;;;;;;2142235;66;1223;-68
2021/07/13 00:42:23;;;;;;;;;;;;;;;;;;2142208;66;1168;-66
2021/07/13 00:44:48;;;;;;;;;;;;;;;;;;2142732;66;1227;-67
2021/07/13 00:47:17;;;;;;;;;;;;;;;;;;2141707;59;1289;-67
2021/07/13 00:49:44;;;;;;;;;;;;;;;;;;2140945;66;1964;-67
2021/07/13 00:52:10;;;;;;;;;;;;;;;;;;2142639;66;1159;-67
2021/07/13 00:54:35;;;;;;;;;;;;;;;;;;2142364;59;1229;-67
2021/07/13 00:57:05;;;;;;;;;;;;;;;;;;2141171;66;1976;-68
2021/07/13 00:59:30;;;;;;;;;;;;;;;;;;2140478;59;2207;-67
2021/07/13 01:01:55;;;;;;;;;;;;;;;;;;2140969;59;1722;-66
2021/07/13 01:04:20;;;;;;;;;;;;;;;;;;2140821;66;1245;-66
2021/07/13 01:06:49;;;;;;;;;;;;;;;;;;2141293;66;1198;-66
2021/07/13 01:09:21;;;;;;;;;;;;;;;;;;2141060;67;1101;-65
2021/07/13 01:11:49;;;;;;;;;;;;;;;;;;2140287;59;1276;-65
2021/07/13 01:14:24;;;;;;;;;;;;;;;;;;2139814;59;2325;-65
2021/07/13 01:16:53;;;;;;;;;;;;;;;;;;2140782;66;1928;-65
2021/07/13 01:19:37;;;;;;;;;;;;;;;;;;2141128;66;1159;-64
2021/07/13 01:22:34;;;;;;;;;;;;;;;;;;2140353;66;1143;-65
2021/07/13 01:25:07;;;;;;;;;;;;;;;;;;2134084;66;1372;-65
2021/07/13 01:27:47;;;;;;;;;;;;;;;;;;2141098;66;1178;-66
2021/07/13 01:30:15;;;;;;;;;;;;;;;;;;2142689;66;1409;-65
2021/07/13 01:32:44;;;;;;;;;;;;;;;;;;2141567;66;1155;-66
2021/07/13 01:35:12;;;;;;;;;;;;;;;;;;2142598;66;1268;-66
2021/07/13 01:37:38;;;;;;;;;;;;;;;;;;2141593;59;1918;-66
2021/07/13 01:40:08;;;;;;;;;;;;;;;;;;2140752;67;1192;-66
2021/07/13 01:42:33;;;;;;;;;;;;;;;;;;2140901;66;1639;-65
2021/07/13 01:44:59;;;;;;;;;;;;;;;;;;2140881;67;1354;-65
2021/07/13 01:47:25;;;;;;;;;;;;;;;;;;2140616;59;1294;-65
2021/07/13 01:49:50;;;;;;;;;;;;;;;;;;2140964;67;1383;-65
2021/07/13 01:52:15;;;;;;;;;;;;;;;;;;2140633;67;1153;-65
2021/07/13 01:54:42;;;;;;;;;;;;;;;;;;2142560;59;2142;-66
2021/07/13 01:57:07;;;;;;;;;;;;;;;;;;2141065;59;1920;-67
2021/07/13 01:59:33;;;;;;;;;;;;;;;;;;2141343;59;1681;-67
2021/07/13 02:01:59;;;;;;;;;;;;;;;;;;2142150;67;1222;-66
2021/07/13 02:04:32;;;;;;;;;;;;;;;;;;2141974;59;1340;-66
2021/07/13 02:06:58;;;;;;;;;;;;;;;;;;2140388;67;1094;-65
2021/07/13 02:09:23;;;;;;;;;;;;;;;;;;2141477;67;1221;-67
2021/07/13 02:11:48;;;;;;;;;;;;;;;;;;2141618;59;1587;-65
2021/07/13 02:14:14;;;;;;;;;;;;;;;;;;2141172;66;1230;-67
2021/07/13 02:16:39;;;;;;;;;;;;;;;;;;2141701;59;1921;-67
2021/07/13 02:19:05;;;;;;;;;;;;;;;;;;2140850;67;1177;-67
2021/07/13 02:21:32;;;;;;;;;;;;;;;;;;2141997;67;1234;-65
2021/07/13 02:23:57;;;;;;;;;;;;;;;;;;2141464;59;1398;-65
2021/07/13 02:26:33;;;;;;;;;;;;;;;;;;2141665;67;1226;-65
2021/07/13 02:29:04;;;;;;;;;;;;;;;;;;2139738;59;1185;-66
2021/07/13 02:31:32;;;;;;;;;;;;;;;;;;2141653;67;1228;-66
2021/07/13 02:34:03;;;;;;;;;;;;;;;;;;2139197;67;1213;-67
2021/07/13 02:36:30;;;;;;;;;;;;;;;;;;2141705;67;1911;-67
2021/07/13 02:38:57;;;;;;;;;;;;;;;;;;2142565;67;1065;-68
2021/07/13 02:41:23;;;;;;;;;;;;;;;;;;2141330;67;1186;-68
2021/07/13 02:43:49;;;;;;;;;;;;;;;;;;2143061;66;1198;-66
2021/07/13 02:46:15;;;;;;;;;;;;;;;;;;2141787;66;1124;-66
2021/07/13 02:48:40;;;;;;;;;;;;;;;;;;2141082;59;1346;-67
2021/07/13 02:51:07;;;;;;;;;;;;;;;;;;2141474;66;1620;-66
2021/07/13 02:53:33;;;;;;;;;;;;;;;;;;2141276;66;1067;-68
2021/07/13 02:55:59;;;;;;;;;;;;;;;;;;2142021;59;1262;-66
2021/07/13 02:58:25;;;;;;;;;;;;;;;;;;2140163;67;1924;-68
2021/07/13 03:00:50;;;;;;;;;;;;;;;;;;2143596;66;1162;-66
2021/07/13 03:03:16;;;;;;;;;;;;;;;;;;2141124;66;1304;-68
2021/07/13 03:05:42;;;;;;;;;;;;;;;;;;2142243;66;1287;-68
2021/07/13 03:08:08;;;;;;;;;;;;;;;;;;2142103;66;1167;-66
2021/07/13 03:10:34;;;;;;;;;;;;;;;;;;2142010;66;1187;-67
2021/07/13 03:12:59;;;;;;;;;;;;;;;;;;2143405;59;1390;-67
2021/07/13 03:15:27;;;;;;;;;;;;;;;;;;2140731;59;1278;-66
2021/07/13 03:17:52;;;;;;;;;;;;;;;;;;2142147;66;1979;-68
2021/07/13 03:20:18;;;;;;;;;;;;;;;;;;2141953;66;1176;-67
2021/07/13 03:22:45;;;;;;;;;;;;;;;;;;2141900;59;1378;-67
2021/07/13 03:25:13;;;;;;;;;;;;;;;;;;2142259;59;1194;-67
2021/07/13 03:27:38;;;;;;;;;;;;;;;;;;2142345;66;1173;-68
2021/07/13 03:30:04;;;;;;;;;;;;;;;;;;2143167;59;1268;-67
2021/07/13 03:32:30;;;;;;;;;;;;;;;;;;2142596;66;1175;-68
2021/07/13 03:34:56;;;;;;;;;;;;;;;;;;2142195;66;1203;-67
2021/07/13 03:37:22;;;;;;;;;;;;;;;;;;2139666;59;2001;-68
2021/07/13 03:39:48;;;;;;;;;;;;;;;;;;2141778;66;1168;-67
2021/07/13 03:42:13;;;;;;;;;;;;;;;;;;2142053;66;1179;-67
2021/07/13 03:44:39;;;;;;;;;;;;;;;;;;2142554;66;1258;-67
2021/07/13 03:47:04;;;;;;;;;;;;;;;;;;2142130;59;1311;-66
2021/07/13 03:49:30;;;;;;;;;;;;;;;;;;2142255;66;1721;-70
2021/07/13 03:51:56;;;;;;;;;;;;;;;;;;2141922;66;1452;-70
2021/07/13 03:54:21;;;;;;;;;;;;;;;;;;2142008;59;1459;-68
2021/07/13 03:56:48;;;;;;;;;;;;;;;;;;2141693;66;1985;-67
2021/07/13 03:59:13;;;;;;;;;;;;;;;;;;2139127;66;1334;-68
2021/07/13 04:01:39;;;;;;;;;;;;;;;;;;2141956;66;1374;-69
2021/07/13 04:04:04;;;;;;;;;;;;;;;;;;2142093;66;1213;-67
2021/07/13 04:06:30;;;;;;;;;;;;;;;;;;2142543;66;1162;-67
2021/07/13 04:08:55;;;;;;;;;;;;;;;;;;2142342;66;1582;-68
2021/07/13 04:11:20;;;;;;;;;;;;;;;;;;2142460;66;1226;-68
2021/07/13 04:13:45;;;;;;;;;;;;;;;;;;2142179;59;1524;-67
2021/07/13 04:16:11;;;;;;;;;;;;;;;;;;2140775;59;1318;-70
2021/07/13 04:18:36;;;;;;;;;;;;;;;;;;2142467;66;1929;-68
2021/07/13 04:21:01;;;;;;;;;;;;;;;;;;2142381;66;1144;-69
2021/07/13 04:23:26;;;;;;;;;;;;;;;;;;2140595;59;1353;-69
2021/07/13 04:25:51;;;;;;;;;;;;;;;;;;2140749;66;1221;-67
2021/07/13 04:28:17;;;;;;;;;;;;;;;;;;2142299;66;1165;-67
2021/07/13 04:30:42;;;;;;;;;;;;;;;;;;2141258;66;1098;-70
2021/07/13 04:33:07;;;;;;;;;;;;;;;;;;2141936;66;1239;-67
2021/07/13 04:35:32;;;;;;;;;;;;;;;;;;2141331;66;1206;-68
2021/07/13 04:37:57;;;;;;;;;;;;;;;;;;2142178;66;1977;-68
2021/07/13 04:40:22;;;;;;;;;;;;;;;;;;2141113;66;1154;-67
2021/07/13 04:42:48;;;;;;;;;;;;;;;;;;2142567;66;1241;-69
2021/07/13 04:45:13;;;;;;;;;;;;;;;;;;2140442;66;1277;-70
2021/07/13 04:47:39;;;;;;;;;;;;;;;;;;2141585;66;1392;-67
2021/07/13 04:50:05;;;;;;;;;;;;;;;;;;2140946;66;1389;-70
2021/07/13 04:52:30;;;;;;;;;;;;;;;;;;2142008;66;1247;-69
2021/07/13 04:54:55;;;;;;;;;;;;;;;;;;2141566;59;1247;-67
2021/07/13 04:57:20;;;;;;;;;;;;;;;;;;2142007;66;1929;-72
2021/07/13 04:59:45;;;;;;;;;;;;;;;;;;2141541;66;1571;-70
2021/07/13 05:02:11;;;;;;;;;;;;;;;;;;2141850;66;1190;-74
2021/07/13 05:04:36;;;;;;;;;;;;;;;;;;2141530;66;1197;-70
2021/07/13 05:07:01;;;;;;;;;;;;;;;;;;2141582;66;1063;-65
2021/07/13 05:09:26;;;;;;;;;;;;;;;;;;2141615;66;1133;-66
2021/07/13 05:11:51;;;;;;;;;;;;;;;;;;2140964;59;1383;-71
2021/07/13 05:14:17;;;;;;;;;;;;;;;;;;2140148;59;1979;-73
2021/07/13 05:16:42;;;;;;;;;;;;;;;;;;2140580;66;1925;-69
2021/07/13 05:19:09;;;;;;;;;;;;;;;;;;2140723;66;1291;-71
2021/07/13 05:21:34;;;;;;;;;;;;;;;;;;2140843;66;1558;-69
2021/07/13 05:24:00;;;;;;;;;;;;;;;;;;2140965;59;1360;-72
2021/07/13 05:26:25;;;;;;;;;;;;;;;;;;2141414;66;1358;-70
2021/07/13 05:28:51;;;;;;;;;;;;;;;;;;2142953;66;1171;-67
2021/07/13 05:31:16;;;;;;;;;;;;;;;;;;2140552;66;1222;-70
2021/07/13 05:33:41;;;;;;;;;;;;;;;;;;2141551;66;1192;-68
2021/07/13 05:36:07;;;;;;;;;;;;;;;;;;2142731;66;1212;-69
2021/07/13 05:38:32;;;;;;;;;;;;;;;;;;2140669;66;1927;-76
2021/07/13 05:40:57;;;;;;;;;;;;;;;;;;2140928;66;1075;-68
2021/07/13 05:43:22;;;;;;;;;;;;;;;;;;2141102;66;1282;-75
2021/07/13 05:45:47;;;;;;;;;;;;;;;;;;2141745;66;1343;-69
2021/07/13 05:48:12;;;;;;;;;;;;;;;;;;2140442;59;1323;-72
2021/07/13 05:50:38;;;;;;;;;;;;;;;;;;2139903;67;1552;-68
2021/07/13 05:53:03;;;;;;;;;;;;;;;;;;2141550;67;1168;-70
2021/07/13 05:55:29;;;;;;;;;;;;;;;;;;2141711;59;1208;-72
2021/07/13 05:57:54;;;;;;;;;;;;;;;;;;2140657;67;1934;-69
2021/07/13 06:00:19;;;;;;;;;;;;;;;;;;2140681;67;1380;-72
2021/07/13 06:02:44;;;;;;;;;;;;;;;;;;2142483;67;1165;-71
2021/07/13 06:05:10;;;;;;;;;;;;;;;;;;2142081;67;1282;-69
2021/07/13 06:07:42;;;;;;;;;;;;;;;;;;2140807;67;1155;-70
2021/07/13 06:10:07;;;;;;;;;;;;;;;;;;2142221;67;1072;-73
2021/07/13 06:12:32;;;;;;;;;;;;;;;;;;2140202;59;1594;-69
2021/07/13 06:14:57;;;;;;;;;;;;;;;;;;2141552;59;1393;-73
2021/07/13 06:17:22;;;;;;;;;;;;;;;;;;2142347;66;1929;-70
2021/07/13 06:19:48;;;;;;;;;;;;;;;;;;2142265;66;1191;-72
2021/07/13 06:22:13;;;;;;;;;;;;;;;;;;2143120;66;1200;-69
2021/07/13 06:24:38;;;;;;;;;;;;;;;;;;2142155;66;1210;-70
2021/07/13 06:27:03;;;;;;;;;;;;;;;;;;2143059;66;1207;-72
2021/07/13 06:29:28;;;;;;;;;;;;;;;;;;2142451;66;1155;-70
2021/07/13 06:31:54;;;;;;;;;;;;;;;;;;2142932;66;1167;-72
2021/07/13 06:34:19;;;;;;;;;;;;;;;;;;2141182;66;1352;-69
2021/07/13 06:36:44;;;;;;;;;;;;;;;;;;2142228;66;1911;-74
2021/07/13 06:39:09;;;;;;;;;;;;;;;;;;2142102;59;1045;-71
2021/07/13 06:41:34;;;;;;;;;;;;;;;;;;2142217;66;1064;-70
2021/07/13 06:44:00;;;;;;;;;;;;;;;;;;2141872;66;1273;-71
2021/07/13 06:46:25;;;;;;;;;;;;;;;;;;2141882;66;1143;-69
2021/07/13 06:48:50;;;;;;;;;;;;;;;;;;2140768;59;1249;-70
2021/07/13 06:51:15;;;;;;;;;;;;;;;;;;2140664;66;1223;-68
2021/07/13 06:53:40;;;;;;;;;;;;;;;;;;2142189;66;1290;-70
2021/07/13 06:56:06;;;;;;;;;;;;;;;;;;2141902;59;1191;-69
2021/07/13 06:58:31;;;;;;;;;;;;;;;;;;2140759;66;1931;-70
2021/07/13 07:00:56;;;;;;;;;;;;;;;;;;2142081;66;1369;-67
2021/07/13 07:03:21;;;;;;;;;;;;;;;;;;2142245;66;1222;-71
2021/07/13 07:05:46;;;;;;;;;;;;;;;;;;2141828;59;2026;-68
2021/07/13 07:08:11;;;;;;;;;;;;;;;;;;2139377;59;2438;-69
2021/07/13 07:10:37;;;;;;;;;;;;;;;;;;2140965;66;1305;-67
2021/07/13 07:13:02;;;;;;;;;;;;;;;;;;2140828;59;1192;-67
2021/07/13 07:15:28;;;;;;;;;;;;;;;;;;2141562;59;2353;-67
2021/07/13 07:17:54;;;;;;;;;;;;;;;;;;2139330;59;1985;-67
2021/07/13 07:20:21;;;;;;;;;;;;;;;;;;2141164;66;1623;-68
2021/07/13 07:22:46;;;;;;;;;;;;;;;;;;2141315;59;1375;-68
2021/07/13 07:25:12;;;;;;;;;;;;;;;;;;2141742;66;1206;-68
2021/07/13 07:27:37;;;;;;;;;;;;;;;;;;2141234;66;1052;-68
2021/07/13 07:30:05;;;;;;;;;;;;;;;;;;2141761;66;1161;-67
2021/07/13 07:32:31;;;;;;;;;;;;;;;;;;2141357;66;1188;-66
2021/07/13 07:34:56;;;;;;;;;;;;;;;;;;2141072;66;2050;-66
2021/07/13 07:37:21;;;;;;;;;;;;;;;;;;2140375;67;1918;-67
2021/07/13 07:39:46;;;;;;;;;;;;;;;;;;2140548;67;1331;-68
2021/07/13 07:42:11;;;;;;;;;;;;;;;;;;2142322;66;1105;-67
2021/07/13 07:44:36;;;;;;;;;;;;;;;;;;2139319;59;1863;-69
2021/07/13 07:47:02;;;;;;;;;;;;;;;;;;2140632;59;1284;-68
2021/07/13 07:49:27;;;;;;;;;;;;;;;;;;2140169;66;1312;-70
2021/07/13 07:51:52;;;;;;;;;;;;;;;;;;2140654;66;1414;-67
2021/07/13 07:54:17;;;;;;;;;;;;;;;;;;2141647;58;1162;-70
2021/07/13 07:56:42;;;;;;;;;;;;;;;;;;2148274;53;2507;-74
2021/07/13 07:59:08;;;;;;;;;;;;;;;;;;2143932;59;1468;-71
2021/07/13 08:01:33;;;;;;;;;;;;;;;;;;2142013;67;1367;-71
2021/07/13 08:03:58;;;;;;;;;;;;;;;;;;2143762;59;1292;-72
2021/07/13 08:06:23;;;;;;;;;;;;;;;;;;2141840;67;1257;-74
2021/07/13 08:08:48;;;;;;;;;;;;;;;;;;2143227;67;1222;-72
2021/07/13 08:11:14;;;;;;;;;;;;;;;;;;2140802;67;1200;-75
2021/07/13 08:13:39;;;;;;;;;;;;;;;;;;2140064;59;1490;-68
2021/07/13 08:16:04;;;;;;;;;;;;;;;;;;2139800;67;1370;-68
2021/07/13 08:18:29;;;;;;;;;;;;;;;;;;2140334;67;1932;-69
2021/07/13 08:20:55;;;;;;;;;;;;;;;;;;2140189;67;1964;-70
2021/07/13 08:23:20;;;;;;;;;;;;;;;;;;2139586;59;2054;-70
2021/07/13 08:25:45;;;;;;;;;;;;;;;;;;2140128;67;1353;-68
2021/07/13 08:28:10;;;;;;;;;;;;;;;;;;2140495;67;1448;-72
2021/07/13 08:30:35;;;;;;;;;;;;;;;;;;2138690;59;1657;-67
2021/07/13 08:33:01;;;;;;;;;;;;;;;;;;2140535;59;1127;-68
2021/07/13 08:35:26;;;;;;;;;;;;;;;;;;2140356;67;1143;-69
2021/07/13 08:37:51;;;;;;;;;;;;;;;;;;2140318;67;1929;-68
2021/07/13 08:40:17;;;;;;;;;;;;;;;;;;2139095;59;1912;-71
2021/07/13 08:42:43;;;;;;;;;;;;;;;;;;2140173;59;1544;-72
2021/07/13 08:45:12;;;;;;;;;;;;;;;;;;2135459;67;1705;-73
2021/07/13 08:47:38;;;;;;;;;;;;;;;;;;2139626;59;1246;-71
2021/07/13 08:50:04;;;;;;;;;;;;;;;;;;2139188;59;1766;-73
2021/07/13 08:52:30;;;;;;;;;;;;;;;;;;2139713;67;1177;-71
2021/07/13 08:54:55;;;;;;;;;;;;;;;;;;2139627;59;1240;-71
2021/07/13 08:57:21;;;;;;;;;;;;;;;;;;2139246;59;1933;-72
2021/07/13 08:59:46;;;;;;;;;;;;;;;;;;2139741;67;1062;-71
2021/07/13 09:02:12;;;;;;;;;;;;;;;;;;2140004;67;1064;-74
2021/07/13 09:04:37;;;;;;;;;;;;;;;;;;2139534;67;1165;-71
2021/07/13 09:07:06;;;;;;;;;;;;;;;;;;2140040;67;1628;-69
2021/07/13 09:09:33;;;;;;;;;;;;;;;;;;2139915;67;1176;-71
2021/07/13 09:12:13;;;;;;;;;;;;;;;;;;2139377;59;1820;-69
2021/07/13 09:14:51;;;;;;;;;;;;;;;;;;2139722;67;1202;-72
2021/07/13 09:17:29;;;;;;;;;;;;;;;;;;2139721;59;1911;-69
2021/07/13 09:19:57;;;;;;;;;;;;;;;;;;2140281;67;1160;-70
2021/07/13 09:22:22;;;;;;;;;;;;;;;;;;2139811;59;1495;-72
2021/07/13 09:24:47;;;;;;;;;;;;;;;;;;2138252;67;2253;-67
2021/07/13 09:27:17;;;;;;;;;;;;;;;;;;2139850;67;1127;-69
2021/07/13 09:29:44;;;;;;;;;;;;;;;;;;2139272;67;1174;-69
2021/07/13 09:32:15;;;;;;;;;;;;;;;;;;2138705;67;1418;-72
2021/07/13 09:35:08;;;;;;;;;;;;;;;;;;2139731;67;1234;-72
2021/07/13 09:37:35;;;;;;;;;;;;;;;;;;2138720;67;1972;-70
2021/07/13 09:40:02;;;;;;;;;;;;;;;;;;2139877;67;2278;-69
2021/07/13 09:42:28;;;;;;;;;;;;;;;;;;2139608;67;1182;-71
2021/07/13 09:45:13;;;;;;;;;;;;;;;;;;2136958;59;1959;-74
2021/07/13 09:47:38;;;;;;;;;;;;;;;;;;2138228;59;1370;-70
2021/07/13 09:50:04;;;;;;;;;;;;;;;;;;2139418;67;1459;-74
2021/07/13 09:52:29;;;;;;;;;;;;;;;;;;2139172;59;1648;-71
2021/07/13 09:54:54;;;;;;;;;;;;;;;;;;2138027;59;2497;-71
2021/07/13 09:57:22;;;;;;;;;;;;;;;;;;2139300;67;2736;-72
2021/07/13 09:59:48;;;;;;;;;;;;;;;;;;2138976;59;1202;-70
2021/07/13 10:02:17;;;;;;;;;;;;;;;;;;2139346;67;1227;-70
2021/07/13 10:04:44;;;;;;;;;;;;;;;;;;2138306;67;1220;-70
2021/07/13 10:07:13;;;;;;;;;;;;;;;;;;2139409;67;1361;-70
2021/07/13 10:10:01;;;;;;;;;;;;;;;;;;2138950;59;1526;-74
2021/07/13 10:12:27;;;;;;;;;;;;;;;;;;2137765;59;1880;-72
2021/07/13 10:14:56;;;;;;;;;;;;;;;;;;2139175;67;1271;-73
2021/07/13 10:17:29;;;;;;;;;;;;;;;;;;2138638;59;1992;-71
2021/07/13 10:19:57;;;;;;;;;;;;;;;;;;2139263;67;1089;-73
2021/07/13 10:22:26;;;;;;;;;;;;;;;;;;2139257;67;1618;-71
2021/07/13 10:24:54;;;;;;;;;;;;;;;;;;2138406;59;1638;-71
2021/07/13 10:27:30;;;;;;;;;;;;;;;;;;2139197;67;1179;-72
2021/07/13 10:29:56;;;;;;;;;;;;;;;;;;2138798;67;2030;-71
2021/07/13 10:32:24;;;;;;;;;;;;;;;;;;2139557;67;1445;-70
2021/07/13 10:34:57;;;;;;;;;;;;;;;;;;2139328;67;1249;-70
2021/07/13 10:37:24;;;;;;;;;;;;;;;;;;2138646;67;1916;-72
2021/07/13 10:39:49;;;;;;;;;;;;;;;;;;2138952;67;1898;-72
2021/07/13 10:42:33;;;;;;;;;;;;;;;;;;2139170;67;1319;-69
2021/07/13 10:45:12;;;;;;;;;;;;;;;;;;2136645;67;1436;-69
2021/07/13 10:47:53;;;;;;;;;;;;;;;;;;2138294;59;1308;-69
2021/07/13 10:50:18;;;;;;;;;;;;;;;;;;2138277;67;1086;-69
2021/07/13 10:52:50;;;;;;;;;;;;;;;;;;2139237;67;1176;-70
2021/07/13 10:55:31;;;;;;;;;;;;;;;;;;2137867;59;2362;-72
2021/07/13 10:58:08;;;;;;;;;;;;;;;;;;2137946;59;2548;-70
2021/07/13 11:00:49;;;;;;;;;;;;;;;;;;2138144;67;1513;-70
2021/07/13 11:03:29;;;;;;;;;;;;;;;;;;2139518;67;1387;-73
2021/07/13 11:05:55;;;;;;;;;;;;;;;;;;2139348;67;2167;-75
2021/07/13 11:08:38;;;;;;;;;;;;;;;;;;2139767;67;1038;-74
2021/07/13 11:11:04;;;;;;;;;;;;;;;;;;2140362;67;1549;-73
2021/07/13 11:13:29;;;;;;;;;;;;;;;;;;2139614;59;1301;-75
2021/07/13 11:15:56;;;;;;;;;;;;;;;;;;2139518;59;1523;-72
2021/07/13 11:18:28;;;;;;;;;;;;;;;;;;2140243;67;1931;-73
2021/07/13 11:20:53;;;;;;;;;;;;;;;;;;2139852;67;1257;-72
2021/07/13 11:23:28;;;;;;;;;;;;;;;;;;2138078;59;1902;-76
2021/07/13 11:26:06;;;;;;;;;;;;;;;;;;2139421;59;2226;-75
2021/07/13 11:28:32;;;;;;;;;;;;;;;;;;2139159;67;1819;-75
2021/07/13 11:30:57;;;;;;;;;;;;;;;;;;2139710;66;1502;-71
2021/07/13 11:33:27;;;;;;;;;;;;;;;;;;2139375;67;1500;-72
2021/07/13 11:35:53;;;;;;;;;;;;;;;;;;2140084;59;2071;-72
2021/07/13 11:38:29;;;;;;;;;;;;;;;;;;2139875;59;1951;-72
2021/07/13 11:41:14;;;;;;;;;;;;;;;;;;2139914;67;1812;-71
2021/07/13 11:43:40;;;;;;;;;;;;;;;;;;2139301;67;1422;-73
2021/07/13 11:46:16;;;;;;;;;;;;;;;;;;2140046;67;1718;-72
2021/07/13 11:48:52;;;;;;;;;;;;;;;;;;2139957;59;1655;-71
2021/07/13 11:51:27;;;;;;;;;;;;;;;;;;2139772;59;1455;-74
2021/07/13 11:53:57;;;;;;;;;;;;;;;;;;2140002;67;1255;-72
2021/07/13 11:56:23;;;;;;;;;;;;;;;;;;2139310;59;2520;-70
2021/07/13 11:58:49;;;;;;;;;;;;;;;;;;2138724;67;3138;-70
2021/07/13 12:01:16;;;;;;;;;;;;;;;;;;2140041;66;1282;-71
2021/07/13 12:03:41;;;;;;;;;;;;;;;;;;2138706;59;1727;-70
2021/07/13 12:06:11;;;;;;;;;;;;;;;;;;2139774;67;1815;-71
2021/07/13 12:08:36;;;;;;;;;;;;;;;;;;2139440;67;1660;-73
2021/07/13 12:11:01;;;;;;;;;;;;;;;;;;2139820;67;1571;-71
2021/07/13 12:13:26;;;;;;;;;;;;;;;;;;2139455;67;1708;-72
2021/07/13 12:15:52;;;;;;;;;;;;;;;;;;2139196;59;1468;-70
2021/07/13 12:18:17;;;;;;;;;;;;;;;;;;2139991;67;1978;-72
2021/07/13 12:20:42;;;;;;;;;;;;;;;;;;2140293;67;1548;-72
2021/07/13 12:23:08;;;;;;;;;;;;;;;;;;2140209;59;1758;-72
2021/07/13 12:25:33;;;;;;;;;;;;;;;;;;2139614;67;1505;-70
2021/07/13 12:28:18;;;;;;;;;;;;;;;;;;2139379;67;2493;-72
2021/07/13 12:30:44;;;;;;;;;;;;;;;;;;2138683;67;2436;-70
2021/07/13 12:33:11;;;;;;;;;;;;;;;;;;2139586;59;1601;-70
2021/07/13 12:35:37;;;;;;;;;;;;;;;;;;2138658;59;1908;-71
2021/07/13 12:38:09;;;;;;;;;;;;;;;;;;2139952;67;1971;-70
2021/07/13 12:40:34;;;;;;;;;;;;;;;;;;2140043;67;1442;-71
2021/07/13 12:43:07;;;;;;;;;;;;;;;;;;2139926;67;1300;-69
2021/07/13 12:45:34;;;;;;;;;;;;;;;;;;2139446;67;1718;-70
2021/07/13 12:48:02;;;;;;;;;;;;;;;;;;2139565;59;1370;-73
2021/07/13 12:50:31;;;;;;;;;;;;;;;;;;2139656;67;1543;-71
2021/07/13 12:52:57;;;;;;;;;;;;;;;;;;2139993;67;1253;-71
2021/07/13 12:55:34;;;;;;;;;;;;;;;;;;2139722;59;1345;-73
2021/07/13 12:58:14;;;;;;;;;;;;;;;;;;2138270;59;3270;-72
2021/07/13 13:00:43;;;;;;;;;;;;;;;;;;2139213;60;2486;-70
2021/07/13 13:03:11;;;;;;;;;;;;;;;;;;2139861;67;1465;-71
2021/07/13 13:05:38;;;;;;;;;;;;;;;;;;2139338;67;1540;-70
2021/07/13 13:08:21;;;;;;;;;;;;;;;;;;2139516;59;1510;-72
2021/07/13 13:10:47;;;;;;;;;;;;;;;;;;2138864;67;1465;-70
2021/07/13 13:13:25;;;;;;;;;;;;;;;;;;2140228;59;1275;-70
2021/07/13 13:15:50;;;;;;;;;;;;;;;;;;2139964;59;1473;-72
2021/07/13 13:18:16;;;;;;;;;;;;;;;;;;2140074;67;2000;-71
2021/07/13 13:20:41;;;;;;;;;;;;;;;;;;2139947;67;1542;-70
2021/07/13 13:23:08;;;;;;;;;;;;;;;;;;2139830;59;1965;-72
2021/07/13 13:25:33;;;;;;;;;;;;;;;;;;2139342;67;1656;-70
2021/07/13 13:27:59;;;;;;;;;;;;;;;;;;2139518;67;2208;-71
2021/07/13 13:30:24;;;;;;;;;;;;;;;;;;2139494;59;1676;-72
2021/07/13 13:32:49;;;;;;;;;;;;;;;;;;2139610;67;1499;-73
2021/07/13 13:35:22;;;;;;;;;;;;;;;;;;2140150;67;1590;-70
2021/07/13 13:38:02;;;;;;;;;;;;;;;;;;2139458;67;1915;-70
2021/07/13 13:40:28;;;;;;;;;;;;;;;;;;2139949;67;1559;-72
2021/07/13 13:42:53;;;;;;;;;;;;;;;;;;2139942;67;1662;-73
2021/07/13 13:45:18;;;;;;;;;;;;;;;;;;2139964;67;1610;-70
2021/07/13 13:47:43;;;;;;;;;;;;;;;;;;2139615;59;1700;-72
2021/07/13 13:50:09;;;;;;;;;;;;;;;;;;2139936;67;1659;-70
2021/07/13 13:52:34;;;;;;;;;;;;;;;;;;2139918;59;1555;-70
2021/07/13 13:54:59;;;;;;;;;;;;;;;;;;2139690;59;2318;-73
2021/07/13 13:57:25;;;;;;;;;;;;;;;;;;2141582;53;3729;-70
2021/07/13 13:59:50;;;;;;;;;;;;;;;;;;2141434;59;3349;-68
2021/07/13 14:02:15;;;;;;;;;;;;;;;;;;2142206;59;1895;-67
2021/07/13 14:04:40;;;;;;;;;;;;;;;;;;2142329;59;1999;-67
2021/07/13 14:07:06;;;;;;;;;;;;;;;;;;2143267;66;1602;-67
2021/07/13 14:09:32;;;;;;;;;;;;;;;;;;2142493;66;1406;-67
2021/07/13 14:11:58;;;;;;;;;;;;;;;;;;2143920;59;1586;-67
2021/07/13 14:14:23;;;;;;;;;;;;;;;;;;2143527;59;1405;-68
2021/07/13 14:16:48;;;;;;;;;;;;;;;;;;2144325;59;1436;-67
2021/07/13 14:19:14;;;;;;;;;;;;;;;;;;2144484;66;1937;-67
2021/07/13 14:21:41;;;;;;;;;;;;;;;;;;2144330;66;1412;-68
2021/07/13 14:24:06;;;;;;;;;;;;;;;;;;2145320;59;1987;-68
2021/07/13 14:26:32;;;;;;;;;;;;;;;;;;2142799;66;2221;-67
2021/07/13 14:28:57;;;;;;;;;;;;;;;;;;2142754;67;2454;-68
2021/07/13 14:31:22;;;;;;;;;;;;;;;;;;2143302;67;1617;-67
2021/07/13 14:33:47;;;;;;;;;;;;;;;;;;2143164;66;1669;-68
2021/07/13 14:36:13;;;;;;;;;;;;;;;;;;2143150;66;1819;-68
2021/07/13 14:38:38;;;;;;;;;;;;;;;;;;2144489;66;1928;-67
2021/07/13 14:41:03;;;;;;;;;;;;;;;;;;2144490;66;1542;-68
2021/07/13 14:43:28;;;;;;;;;;;;;;;;;;2143957;66;1920;-68
2021/07/13 14:45:54;;;;;;;;;;;;;;;;;;2145152;66;1609;-68
2021/07/13 14:48:19;;;;;;;;;;;;;;;;;;2144272;59;1693;-67
2021/07/13 14:50:46;;;;;;;;;;;;;;;;;;2144444;66;1901;-68
2021/07/13 14:53:12;;;;;;;;;;;;;;;;;;2145730;66;1296;-68
2021/07/13 14:55:38;;;;;;;;;;;;;;;;;;2143408;66;1385;-69
2021/07/13 14:58:03;;;;;;;;;;;;;;;;;;2145455;58;1930;-67
2021/07/13 15:00:28;;;;;;;;;;;;;;;;;;2141904;66;3266;-67
2021/07/13 15:02:53;;;;;;;;;;;;;;;;;;2143781;66;1767;-67
2021/07/13 15:05:18;;;;;;;;;;;;;;;;;;2146014;66;1440;-68
2021/07/13 15:07:44;;;;;;;;;;;;;;;;;;2144669;66;1323;-67
2021/07/13 15:10:09;;;;;;;;;;;;;;;;;;2145049;66;1461;-68
2021/07/13 15:12:36;;;;;;;;;;;;;;;;;;2143091;66;1410;-68
2021/07/13 15:15:03;;;;;;;;;;;;;;;;;;2145596;66;1839;-68
2021/07/13 15:17:28;;;;;;;;;;;;;;;;;;2143621;66;2165;-68
2021/07/13 15:19:53;;;;;;;;;;;;;;;;;;2143268;66;1732;-67
2021/07/13 15:22:18;;;;;;;;;;;;;;;;;;2143802;59;1474;-68
2021/07/13 15:24:44;;;;;;;;;;;;;;;;;;2143346;59;2136;-68
2021/07/13 15:27:10;;;;;;;;;;;;;;;;;;2143585;66;1921;-68
2021/07/13 15:29:35;;;;;;;;;;;;;;;;;;2142803;59;2192;-68
2021/07/13 15:32:00;;;;;;;;;;;;;;;;;;2143561;59;1918;-67
2021/07/13 15:34:25;;;;;;;;;;;;;;;;;;2141090;66;1970;-67
2021/07/13 15:36:51;;;;;;;;;;;;;;;;;;2140398;66;2029;-67
2021/07/13 15:39:16;;;;;;;;;;;;;;;;;;2143057;59;1992;-67
2021/07/13 15:41:41;;;;;;;;;;;;;;;;;;2143001;66;1192;-68
2021/07/13 15:44:06;;;;;;;;;;;;;;;;;;2143131;59;1864;-67
2021/07/13 15:46:32;;;;;;;;;;;;;;;;;;2142792;66;1979;-69
2021/07/13 15:48:57;;;;;;;;;;;;;;;;;;2144358;59;1393;-67
2021/07/13 15:51:22;;;;;;;;;;;;;;;;;;2143630;66;1297;-68
2021/07/13 15:53:48;;;;;;;;;;;;;;;;;;2144587;66;2751;-68
2021/07/13 15:56:13;;;;;;;;;;;;;;;;;;2145752;58;1192;-67
2021/07/13 15:58:38;;;;;;;;;;;;;;;;;;2144211;66;1944;-68
2021/07/13 16:01:03;;;;;;;;;;;;;;;;;;2142694;66;2238;-66
2021/07/13 16:03:28;;;;;;;;;;;;;;;;;;2143377;66;2592;-68
2021/07/13 16:05:53;;;;;;;;;;;;;;;;;;2144049;59;2057;-67
2021/07/13 16:08:19;;;;;;;;;;;;;;;;;;2144009;66;1810;-68
2021/07/13 16:10:44;;;;;;;;;;;;;;;;;;2144163;66;1601;-67
2021/07/13 16:13:15;;;;;;;;;;;;;;;;;;2145059;58;1605;-68
2021/07/13 16:15:41;;;;;;;;;;;;;;;;;;2143205;58;1646;-69
2021/07/13 16:18:07;;;;;;;;;;;;;;;;;;2144017;66;1940;-68
2021/07/13 16:20:32;;;;;;;;;;;;;;;;;;2144457;66;1519;-68
2021/07/13 16:22:57;;;;;;;;;;;;;;;;;;2144413;66;1884;-68
2021/07/13 16:25:22;;;;;;;;;;;;;;;;;;2143491;66;2141;-68
2021/07/13 16:27:48;;;;;;;;;;;;;;;;;;2143673;66;1577;-68
2021/07/13 16:30:13;;;;;;;;;;;;;;;;;;2144634;66;1477;-69
2021/07/13 16:32:41;;;;;;;;;;;;;;;;;;2144542;66;1479;-68
2021/07/13 16:35:07;;;;;;;;;;;;;;;;;;2143713;66;1539;-68
2021/07/13 16:37:33;;;;;;;;;;;;;;;;;;2142647;66;1944;-68
2021/07/13 16:39:58;;;;;;;;;;;;;;;;;;2144357;66;1525;-68
2021/07/13 16:42:23;;;;;;;;;;;;;;;;;;2145414;66;1387;-68
2021/07/13 16:44:48;;;;;;;;;;;;;;;;;;2142077;59;2219;-67
2021/07/13 16:47:14;;;;;;;;;;;;;;;;;;2141865;59;1997;-68
2021/07/13 16:49:39;;;;;;;;;;;;;;;;;;2142032;58;1937;-67
2021/07/13 16:52:04;;;;;;;;;;;;;;;;;;2142933;66;1615;-68
2021/07/13 16:54:29;;;;;;;;;;;;;;;;;;2144305;66;1555;-67
2021/07/13 16:56:56;;;;;;;;;;;;;;;;;;2144650;58;1517;-67
2021/07/13 16:59:22;;;;;;;;;;;;;;;;;;2144513;66;1937;-67
2021/07/13 17:01:47;;;;;;;;;;;;;;;;;;2141977;66;2713;-67